Time;durP1;ratioP1;P1;durP2;ratioP2;P2;SDS_P1;SDS_P2;PMS_P1;PMS_P2;Temp;Humidity;BMP_temperature;BMP_pressure;BME280_temperature;BME280_humidity;BME280_pressure;Samples;Min_cycle;Max_cycle;Signal;HPM_P1;HPM_P2
2023/03/02 00:03:03;;;;;;;14.10;6.72;;;4.20;94.20;;;;;;10164008;28;20535;-66
2023/03/02 00:07:55;;;;;;;15.73;7.68;;;4.20;94.40;;;;;;10167054;28;20020;-65
2023/03/02 00:12:46;;;;;;;14.38;6.68;;;4.20;94.40;;;;;;10163822;28;20514;-64
2023/03/02 00:17:37;;;;;;;16.60;7.82;;;4.20;94.60;;;;;;10149567;28;20040;-64
2023/03/02 00:22:28;;;;;;;12.55;6.35;;;4.20;94.70;;;;;;10163126;28;20052;-68
2023/03/02 00:27:18;;;;;;;16.60;7.60;;;4.10;94.90;;;;;;10165754;28;20561;-64
2023/03/02 00:32:13;;;;;;;13.18;7.40;;;4.10;95.00;;;;;;10160913;28;20111;-67
2023/03/02 00:37:04;;;;;;;14.98;7.28;;;4.10;95.20;;;;;;10161250;28;20080;-61
2023/03/02 00:41:54;;;;;;;13.73;7.50;;;4.10;95.40;;;;;;10172927;28;20018;-65
2023/03/02 00:46:45;;;;;;;15.48;6.70;;;4.00;95.50;;;;;;10154183;28;20078;-62
2023/03/02 00:51:36;;;;;;;17.67;8.00;;;4.00;95.70;;;;;;10169650;28;20024;-64
2023/03/02 00:56:27;;;;;;;15.43;7.60;;;3.90;95.80;;;;;;10179669;28;20088;-63
2023/03/02 01:01:17;;;;;;;16.27;7.10;;;3.90;96.00;;;;;;10166993;28;20084;-62
2023/03/02 01:06:15;;;;;;;17.33;7.93;;;3.80;96.00;;;;;;10168733;28;20043;-63
2023/03/02 01:11:15;;;;;;;15.95;6.65;;;3.70;96.20;;;;;;10164092;28;20024;-63
2023/03/02 01:16:06;;;;;;;18.10;8.10;;;3.80;96.10;;;;;;10163385;28;20032;-62
2023/03/02 01:21:01;;;;;;;15.25;7.32;;;3.70;96.20;;;;;;10166225;28;20040;-66
2023/03/02 01:25:52;;;;;;;13.57;7.80;;;3.70;96.30;;;;;;10166461;28;20038;-64
2023/03/02 01:30:42;;;;;;;16.35;7.22;;;3.70;96.30;;;;;;10164999;28;20055;-62
2023/03/02 01:35:34;;;;;;;15.80;7.28;;;3.70;96.40;;;;;;10168973;28;20048;-65
2023/03/02 01:40:24;;;;;;;17.98;8.75;;;3.60;96.40;;;;;;10173353;28;20073;-64
2023/03/02 01:45:43;;;;;;;16.15;7.88;;;3.60;96.80;;;;;;10165436;28;20028;-65
2023/03/02 01:50:34;;;;;;;15.07;7.57;;;3.60;96.70;;;;;;10172374;28;20078;-67
2023/03/02 01:55:30;;;;;;;16.17;7.57;;;3.60;96.80;;;;;;10170988;28;20024;-63
2023/03/02 02:00:23;;;;;;;;;;;3.60;96.80;;;;;;10167075;28;20094;-64
2023/03/02 02:05:21;;;;;;;13.18;6.40;;;3.60;96.90;;;;;;10160830;28;20352;-62
2023/03/02 02:10:13;;;;;;;15.68;7.78;;;3.50;97.20;;;;;;10165993;28;20444;-65
2023/03/02 02:15:05;;;;;;;13.90;7.47;;;3.40;97.20;;;;;;10158014;28;20052;-62
2023/03/02 02:20:15;;;;;;;17.02;7.85;;;3.40;97.30;;;;;;10166276;28;20091;-62
2023/03/02 02:25:18;;;;;;;14.60;7.55;;;3.40;97.40;;;;;;10171859;28;20035;-65
2023/03/02 02:30:12;;;;;;;22.80;9.18;;;3.40;97.50;;;;;;10166080;28;20048;-66
2023/03/02 02:35:18;;;;;;;21.27;8.82;;;3.30;97.60;;;;;;10173368;28;20044;-66
2023/03/02 02:40:16;;;;;;;16.52;8.55;;;3.30;97.80;;;;;;10157155;28;20040;-67
2023/03/02 02:45:24;;;;;;;18.70;8.35;;;3.20;98.00;;;;;;10163563;28;20021;-66
2023/03/02 02:50:30;;;;;;;16.52;8.73;;;3.10;98.30;;;;;;10161136;28;20502;-65
2023/03/02 02:55:22;;;;;;;16.25;8.25;;;3.10;98.40;;;;;;10165243;28;20301;-70
2023/03/02 03:00:19;;;;;;;20.63;8.40;;;3.00;98.60;;;;;;10168616;28;20047;-68
2023/03/02 03:05:16;;;;;;;17.98;7.18;;;3.00;98.60;;;;;;10157742;28;20485;-65
2023/03/02 03:10:15;;;;;;;17.38;7.25;;;3.00;98.70;;;;;;10152637;28;20579;-66
2023/03/02 03:15:07;;;;;;;20.27;7.93;;;2.90;98.90;;;;;;10157183;28;20028;-65
2023/03/02 03:20:04;;;;;;;21.88;8.52;;;2.90;99.20;;;;;;10161525;28;20024;-68
2023/03/02 03:24:56;;;;;;;17.85;7.68;;;2.90;99.20;;;;;;10151574;28;20028;-64
2023/03/02 03:29:48;;;;;;;15.57;8.38;;;2.90;99.20;;;;;;10158934;28;20494;-63
2023/03/02 03:34:40;;;;;;;17.60;8.23;;;2.80;99.20;;;;;;10121379;28;1211227;-62
2023/03/02 03:39:31;;;;;;;19.70;8.90;;;2.80;99.30;;;;;;10167712;28;20506;-63
2023/03/02 03:44:22;;;;;;;20.27;7.57;;;2.80;99.50;;;;;;10155384;28;20012;-65
2023/03/02 03:49:13;;;;;;;16.27;7.43;;;2.70;99.50;;;;;;10158087;28;20103;-62
2023/03/02 03:54:06;;;;;;;16.98;7.95;;;2.70;99.70;;;;;;10147728;28;20106;-63
2023/03/02 03:59:05;;;;;;;14.30;9.43;;;2.60;99.80;;;;;;10158549;28;20036;-62
2023/03/02 04:03:56;;;;;;;17.38;7.97;;;2.60;99.90;;;;;;10150672;28;20044;-63
2023/03/02 04:08:46;;;;;;;18.55;7.97;;;2.60;99.90;;;;;;10162146;28;20093;-66
2023/03/02 04:13:37;;;;;;;18.77;8.02;;;2.60;99.90;;;;;;10161181;28;20016;-67
2023/03/02 04:18:28;;;;;;;19.02;8.20;;;2.60;99.90;;;;;;10160466;28;20055;-66
2023/03/02 04:23:18;;;;;;;15.38;8.27;;;2.50;99.90;;;;;;10159071;28;20042;-63
2023/03/02 04:28:09;;;;;;;19.67;7.93;;;2.50;99.90;;;;;;10172272;28;20031;-69
2023/03/02 04:32:59;;;;;;;18.65;8.48;;;2.60;99.90;;;;;;10197832;28;20021;-67
2023/03/02 04:37:50;;;;;;;22.45;8.70;;;2.60;99.90;;;;;;10170994;28;20807;-68
2023/03/02 04:42:43;;;;;;;15.45;8.15;;;2.60;99.90;;;;;;10168910;28;20032;-69
2023/03/02 04:47:34;;;;;;;20.80;8.43;;;2.50;99.90;;;;;;10159124;28;20024;-65
2023/03/02 04:52:24;;;;;;;19.02;8.13;;;2.40;99.90;;;;;;10174146;28;20486;-63
2023/03/02 04:57:15;;;;;;;16.85;8.95;;;2.40;99.90;;;;;;10168304;28;20025;-63
2023/03/02 05:02:06;;;;;;;18.83;9.63;;;2.40;99.90;;;;;;10162053;28;20111;-62
2023/03/02 05:06:57;;;;;;;18.88;7.85;;;2.40;99.90;;;;;;10163762;28;20411;-61
2023/03/02 05:11:48;;;;;;;19.70;8.07;;;2.40;99.90;;;;;;10162775;28;20065;-62
2023/03/02 05:16:40;;;;;;;20.02;8.43;;;2.40;99.90;;;;;;10161187;28;20036;-64
2023/03/02 05:21:31;;;;;;;14.88;7.32;;;2.30;99.90;;;;;;10179023;28;20051;-64
2023/03/02 05:26:22;;;;;;;19.80;9.25;;;2.40;99.90;;;;;;10181717;28;20249;-64
2023/03/02 05:31:43;;;;;;;18.27;8.35;;;2.30;99.90;;;;;;10164472;28;20210;-62
2023/03/02 05:36:34;;;;;;;20.10;7.93;;;2.30;99.90;;;;;;10153773;28;20044;-62
2023/03/02 05:41:25;;;;;;;16.17;7.03;;;2.30;99.90;;;;;;10161368;28;20495;-62
2023/03/02 05:46:16;;;;;;;20.90;8.55;;;2.30;99.90;;;;;;10160865;28;20438;-68
2023/03/02 05:51:07;;;;;;;17.15;8.07;;;2.30;99.90;;;;;;10155754;28;20016;-65
2023/03/02 05:55:57;;;;;;;17.92;7.63;;;2.20;99.90;;;;;;10171637;28;20038;-64
2023/03/02 06:00:48;;;;;;;20.55;8.65;;;2.20;99.90;;;;;;10157596;28;20421;-67
2023/03/02 06:05:39;;;;;;;20.30;7.63;;;2.20;99.90;;;;;;10151055;28;20640;-67
2023/03/02 06:10:31;;;;;;;13.25;7.45;;;2.20;99.90;;;;;;10158313;28;20165;-61
2023/03/02 06:15:22;;;;;;;17.08;7.80;;;2.20;99.90;;;;;;10163775;28;20043;-66
2023/03/02 06:20:13;;;;;;;18.52;9.00;;;2.10;99.90;;;;;;10169564;28;20405;-65
2023/03/02 06:25:04;;;;;;;19.33;8.85;;;2.20;99.90;;;;;;10156336;28;20102;-65
2023/03/02 06:29:56;;;;;;;18.13;8.77;;;2.20;99.90;;;;;;10174755;28;20410;-64
2023/03/02 06:34:47;;;;;;;17.85;7.85;;;2.10;99.90;;;;;;10159731;28;20045;-65
2023/03/02 06:39:37;;;;;;;17.00;7.97;;;2.20;99.90;;;;;;10170648;28;20032;-61
2023/03/02 06:44:28;;;;;;;21.55;8.68;;;2.20;99.90;;;;;;10157767;28;20511;-63
2023/03/02 06:49:19;;;;;;;19.65;8.18;;;2.20;99.90;;;;;;10161571;28;20367;-63
2023/03/02 06:54:09;;;;;;;17.48;8.52;;;2.30;99.90;;;;;;10160063;28;20549;-62
2023/03/02 06:59:00;;;;;;;18.92;8.45;;;2.30;99.90;;;;;;10166191;28;20046;-63
2023/03/02 07:03:51;;;;;;;18.25;8.18;;;2.30;99.90;;;;;;10155451;28;20039;-62
2023/03/02 07:08:41;;;;;;;18.02;8.07;;;2.40;99.90;;;;;;10156985;28;20043;-62
2023/03/02 07:13:32;;;;;;;23.33;8.27;;;2.40;99.90;;;;;;10157082;28;20016;-61
2023/03/02 07:18:24;;;;;;;16.38;8.10;;;2.40;99.90;;;;;;10156974;28;20571;-62
2023/03/02 07:23:14;;;;;;;18.75;8.48;;;2.40;99.90;;;;;;10172785;28;20040;-63
2023/03/02 07:28:05;;;;;;;23.35;8.90;;;2.40;99.90;;;;;;10165932;28;20062;-61
2023/03/02 07:32:56;;;;;;;18.17;8.27;;;2.50;99.90;;;;;;10165894;28;20119;-62
2023/03/02 07:37:47;;;;;;;17.25;8.68;;;2.60;99.90;;;;;;10160044;28;20058;-65
2023/03/02 07:42:38;;;;;;;16.05;9.30;;;2.60;99.90;;;;;;10152705;28;20055;-66
2023/03/02 07:47:29;;;;;;;19.58;9.13;;;2.50;99.90;;;;;;10160508;28;20020;-66
2023/03/02 07:52:19;;;;;;;17.42;9.85;;;2.60;99.90;;;;;;10171174;28;20016;-65
2023/03/02 07:57:12;;;;;;;16.55;8.82;;;2.70;99.90;;;;;;10188700;28;20035;-68
2023/03/02 08:02:03;;;;;;;21.02;8.85;;;2.80;99.90;;;;;;10181167;28;20028;-65
2023/03/02 08:06:53;;;;;;;22.88;8.60;;;2.90;99.90;;;;;;10176407;28;20028;-67
2023/03/02 08:11:46;;;;;;;19.85;9.07;;;3.00;99.90;;;;;;10171361;28;20044;-68
2023/03/02 08:16:38;;;;;;;22.08;10.10;;;3.10;99.90;;;;;;10177254;28;20048;-66
2023/03/02 08:21:28;;;;;;;20.00;9.43;;;3.10;99.90;;;;;;10173050;28;20035;-67
2023/03/02 08:26:19;;;;;;;17.25;9.35;;;3.30;99.90;;;;;;10164927;28;20336;-68
2023/03/02 08:31:11;;;;;;;21.48;9.98;;;3.50;99.90;;;;;;10171538;28;20028;-68
2023/03/02 08:36:05;;;;;;;19.35;8.40;;;3.60;99.90;;;;;;10172952;28;20098;-66
2023/03/02 08:40:56;;;;;;;21.30;10.48;;;3.70;99.90;;;;;;10167024;28;20033;-64
2023/03/02 08:45:56;;;;;;;20.35;8.70;;;3.80;99.90;;;;;;10171043;28;20312;-66
2023/03/02 08:50:58;;;;;;;25.75;10.07;;;4.00;99.90;;;;;;10175492;28;20151;-65
2023/03/02 08:55:49;;;;;;;19.08;8.95;;;4.10;99.90;;;;;;10171239;28;20357;-67
2023/03/02 09:00:39;;;;;;;21.45;9.75;;;4.20;99.90;;;;;;10168735;28;20512;-67
2023/03/02 09:05:30;;;;;;;20.10;10.73;;;4.40;99.90;;;;;;10173134;28;20032;-66
2023/03/02 09:10:21;;;;;;;22.27;11.70;;;4.60;99.90;;;;;;10161744;28;20085;-65
2023/03/02 09:15:11;;;;;;;23.00;11.23;;;4.60;99.90;;;;;;10156879;28;20016;-66
2023/03/02 09:20:02;;;;;;;23.00;9.68;;;4.70;99.90;;;;;;10158683;28;20498;-65
2023/03/02 09:24:53;;;;;;;24.92;10.10;;;4.90;99.90;;;;;;10172323;28;20016;-67
2023/03/02 09:29:44;;;;;;;20.35;10.30;;;5.00;99.90;;;;;;10167520;28;20033;-66
2023/03/02 09:34:34;;;;;;;22.35;10.75;;;5.20;99.90;;;;;;10166442;28;20044;-62
2023/03/02 09:39:25;;;;;;;21.80;10.18;;;5.40;99.90;;;;;;10166718;28;20293;-63
2023/03/02 09:44:21;;;;;;;18.33;9.60;;;5.60;99.90;;;;;;10144979;28;20032;-64
2023/03/02 09:49:21;;;;;;;23.13;10.50;;;5.70;99.90;;;;;;10156044;28;20048;-62
2023/03/02 09:54:19;;;;;;;20.50;10.73;;;5.80;99.90;;;;;;10162188;28;20509;-64
2023/03/02 09:59:23;;;;;;;21.48;10.73;;;6.10;99.90;;;;;;10169335;28;20028;-62
2023/03/02 10:04:27;;;;;;;23.55;11.05;;;6.30;99.90;;;;;;10166720;28;20055;-65
2023/03/02 10:09:18;;;;;;;23.88;10.52;;;6.30;99.90;;;;;;10168875;28;20028;-66
2023/03/02 10:14:13;;;;;;;23.15;12.35;;;6.50;99.90;;;;;;10149903;28;20441;-70
2023/03/02 10:19:24;;;;;;;25.42;12.07;;;6.50;99.90;;;;;;10160590;28;20042;-63
2023/03/02 10:24:34;;;;;;;25.10;11.50;;;6.60;99.90;;;;;;10173882;28;20036;-69
2023/03/02 10:29:49;;;;;;;25.90;11.57;;;6.60;99.90;;;;;;10177839;28;20568;-63
2023/03/02 10:34:40;;;;;;;24.70;10.50;;;6.60;99.90;;;;;;10158938;28;20044;-65
2023/03/02 10:39:31;;;;;;;20.90;10.27;;;6.50;99.90;;;;;;10165599;28;20036;-66
2023/03/02 10:44:29;;;;;;;22.35;10.02;;;6.70;99.90;;;;;;10165772;28;20390;-65
2023/03/02 10:49:34;;;;;;;21.70;10.32;;;6.80;99.90;;;;;;10158512;28;20024;-69
2023/03/02 10:54:27;;;;;;;23.25;11.38;;;7.00;99.90;;;;;;10163644;28;20105;-65
2023/03/02 10:59:26;;;;;;;23.30;11.15;;;7.10;99.90;;;;;;10156251;28;20110;-65
2023/03/02 11:04:17;;;;;;;23.70;11.75;;;7.10;99.90;;;;;;10158969;28;20506;-64
2023/03/02 11:09:13;;;;;;;21.58;10.60;;;7.10;99.90;;;;;;10165765;28;20020;-65
2023/03/02 11:14:22;;;;;;;21.45;11.27;;;7.20;99.90;;;;;;10166096;28;20035;-68
2023/03/02 11:19:16;;;;;;;20.90;10.57;;;7.20;99.90;;;;;;10171048;28;20058;-69
2023/03/02 11:24:07;;;;;;;25.08;11.50;;;7.50;99.90;;;;;;10171748;28;20059;-70
2023/03/02 11:29:28;;;;;;;27.10;12.23;;;7.60;99.90;;;;;;10157426;28;20039;-69
2023/03/02 11:34:34;;;;;;;24.83;11.20;;;7.50;99.90;;;;;;10163918;28;20133;-67
2023/03/02 11:39:48;;;;;;;26.10;12.40;;;7.80;99.90;;;;;;10171876;28;20281;-64
2023/03/02 11:44:39;;;;;;;20.05;10.73;;;7.60;99.90;;;;;;10166476;28;20025;-67
2023/03/02 11:49:55;;;;;;;18.73;9.55;;;7.40;99.90;;;;;;10156548;28;20100;-64
2023/03/02 11:54:55;;;;;;;23.47;10.70;;;7.40;99.90;;;;;;10156105;28;20059;-65
2023/03/02 11:59:47;;;;;;;23.05;10.88;;;7.60;99.90;;;;;;10166289;28;21040;-69
2023/03/02 12:04:38;;;;;;;19.75;10.65;;;7.50;99.90;;;;;;10170431;28;20024;-62
2023/03/02 12:09:36;;;;;;;22.90;10.63;;;7.60;99.90;;;;;;10165586;28;20512;-66
2023/03/02 12:14:39;;;;;;;24.27;12.20;;;7.80;99.90;;;;;;10145757;28;20479;-65
2023/03/02 12:19:39;;;;;;;20.55;10.80;;;8.10;99.70;;;;;;10150724;28;20043;-68
2023/03/02 12:24:37;;;;;;;19.00;10.30;;;8.30;99.60;;;;;;10154704;28;20030;-68
2023/03/02 12:29:45;;;;;;;23.42;11.07;;;8.40;99.50;;;;;;10154922;28;20028;-68
2023/03/02 12:34:50;;;;;;;22.73;11.93;;;8.30;99.60;;;;;;10153763;28;20048;-63
2023/03/02 12:40:01;;;;;;;19.27;9.50;;;8.10;99.80;;;;;;10160101;28;20040;-65
2023/03/02 12:44:58;;;;;;;20.85;10.35;;;8.10;99.60;;;;;;10158066;28;20054;-66
2023/03/02 12:50:15;;;;;;;24.15;10.63;;;8.30;99.70;;;;;;10158091;28;20490;-71
2023/03/02 12:55:16;;;;;;;22.63;11.25;;;8.50;99.40;;;;;;10166561;28;20035;-68
2023/03/02 13:00:17;;;;;;;23.13;10.27;;;8.60;99.30;;;;;;10174840;28;20378;-64
2023/03/02 13:05:08;;;;;;;21.05;11.63;;;8.40;99.50;;;;;;10162987;28;20505;-65
2023/03/02 13:09:59;;;;;;;23.77;11.13;;;8.40;99.30;;;;;;10169070;28;20032;-64
2023/03/02 13:14:54;;;;;;;21.20;10.57;;;8.20;99.50;;;;;;10166358;28;20252;-65
2023/03/02 13:19:44;;;;;;;23.80;10.00;;;8.20;99.40;;;;;;10156773;28;20422;-68
2023/03/02 13:25:00;;;;;;;20.02;10.93;;;8.10;99.40;;;;;;10164633;28;20534;-65
2023/03/02 13:29:52;;;;;;;22.70;9.65;;;8.20;99.30;;;;;;10174370;28;20035;-63
2023/03/02 13:34:57;;;;;;;21.02;10.13;;;8.40;99.10;;;;;;10163750;28;20049;-62
2023/03/02 13:40:00;;;;;;;20.00;10.53;;;8.40;98.90;;;;;;10165432;28;20586;-66
2023/03/02 13:44:50;;;;;;;23.08;10.18;;;8.30;98.90;;;;;;10164236;28;20028;-64
2023/03/02 13:49:41;;;;;;;21.02;10.05;;;8.30;98.90;;;;;;10172355;28;20038;-63
2023/03/02 13:54:35;;;;;;;22.75;11.48;;;8.30;98.80;;;;;;10161594;28;20315;-63
2023/03/02 13:59:26;;;;;;;23.80;10.68;;;8.40;98.80;;;;;;10158008;28;20055;-65
2023/03/02 14:04:22;;;;;;;21.98;11.10;;;8.30;98.70;;;;;;10161795;28;20024;-68
2023/03/02 14:09:13;;;;;;;22.45;10.52;;;8.20;98.90;;;;;;10151800;28;20430;-65
2023/03/02 14:14:05;;;;;;;25.25;11.52;;;8.30;98.70;;;;;;10150576;28;20020;-63
2023/03/02 14:18:56;;;;;;;22.33;9.98;;;8.20;98.70;;;;;;10153659;28;20044;-63
2023/03/02 14:23:47;;;;;;;24.17;10.15;;;8.30;98.60;;;;;;10167049;28;20030;-63
2023/03/02 14:28:38;;;;;;;23.48;11.00;;;8.30;98.60;;;;;;10167702;28;20406;-66
2023/03/02 14:33:29;;;;;;;20.33;10.57;;;8.20;98.70;;;;;;10167131;28;20054;-72
2023/03/02 14:38:22;;;;;;;21.38;9.40;;;8.10;99.00;;;;;;10166078;28;20147;-66
2023/03/02 14:43:12;;;;;;;23.35;9.73;;;8.30;98.50;;;;;;10159656;28;20047;-63
2023/03/02 14:48:03;;;;;;;16.70;9.60;;;8.20;98.50;;;;;;10172348;28;20038;-63
2023/03/02 14:52:56;;;;;;;20.65;10.65;;;8.20;98.50;;;;;;10163467;28;20394;-63
2023/03/02 14:57:56;;;;;;;22.00;10.27;;;8.10;98.50;;;;;;10168432;28;20157;-66
2023/03/02 15:02:47;;;;;;;25.60;10.05;;;8.20;98.40;;;;;;10168468;28;20039;-63
2023/03/02 15:07:37;;;;;;;20.92;10.93;;;8.20;98.50;;;;;;10159397;28;20119;-63
2023/03/02 15:12:28;;;;;;;19.67;9.57;;;8.20;98.40;;;;;;10166694;28;20035;-65
2023/03/02 15:17:19;;;;;;;27.95;12.80;;;8.20;98.40;;;;;;10180493;28;20081;-67
2023/03/02 15:22:11;;;;;;;20.05;10.90;;;8.20;98.50;;;;;;10174189;28;20035;-67
2023/03/02 15:27:02;;;;;;;22.98;10.35;;;8.10;98.40;;;;;;10168972;28;20061;-65
2023/03/02 15:31:52;;;;;;;22.75;11.15;;;8.00;98.50;;;;;;10165282;28;20533;-68
2023/03/02 15:36:43;;;;;;;24.38;10.68;;;8.10;98.40;;;;;;10152045;28;20036;-65
2023/03/02 15:41:34;;;;;;;25.00;10.48;;;8.10;98.40;;;;;;10163849;28;20046;-66
2023/03/02 15:46:25;;;;;;;16.92;9.00;;;8.00;98.40;;;;;;10172597;28;20024;-65
2023/03/02 15:51:16;;;;;;;28.13;11.50;;;7.90;98.30;;;;;;10166564;28;20039;-69
2023/03/02 15:56:13;;;;;;;17.17;9.25;;;7.90;98.50;;;;;;10163420;28;20058;-65
2023/03/02 16:01:09;;;;;;;21.02;9.45;;;8.00;98.30;;;;;;10162217;28;20038;-70
2023/03/02 16:06:00;;;;;;;18.98;11.13;;;8.00;98.20;;;;;;10165299;28;20445;-64
2023/03/02 16:10:58;;;;;;;19.42;9.57;;;8.00;98.20;;;;;;10143987;28;20039;-63
2023/03/02 16:15:48;;;;;;;19.08;9.73;;;8.00;98.00;;;;;;10158979;28;20066;-63
2023/03/02 16:20:39;;;;;;;24.02;11.32;;;7.90;98.00;;;;;;10159209;28;20036;-63
2023/03/02 16:25:32;;;;;;;24.02;10.88;;;7.80;98.00;;;;;;10166304;28;20152;-64
2023/03/02 16:30:22;;;;;;;26.08;11.48;;;7.80;98.00;;;;;;10180600;28;20027;-64
2023/03/02 16:35:13;;;;;;;23.58;11.68;;;7.80;97.90;;;;;;10169476;28;20036;-65
2023/03/02 16:40:04;;;;;;;25.90;10.63;;;7.70;97.80;;;;;;10171290;28;20495;-65
2023/03/02 16:44:54;;;;;;;28.00;12.15;;;7.60;97.90;;;;;;10157610;28;20121;-65
2023/03/02 16:49:45;;;;;;;21.38;10.15;;;7.50;97.90;;;;;;10161687;28;20675;-65
2023/03/02 16:54:36;;;;;;;21.83;10.55;;;7.40;98.00;;;;;;10178121;28;20024;-60
2023/03/02 16:59:26;;;;;;;26.33;10.40;;;7.30;98.00;;;;;;10170042;28;20031;-60
2023/03/02 17:04:17;;;;;;;23.27;11.68;;;7.20;98.00;;;;;;10164015;28;20020;-61
2023/03/02 17:09:08;;;;;;;26.20;12.07;;;7.10;98.10;;;;;;10168061;28;20405;-60
2023/03/02 17:13:58;;;;;;;26.98;12.30;;;7.00;98.10;;;;;;10158165;28;20082;-60
2023/03/02 17:18:49;;;;;;;27.40;11.30;;;6.80;98.10;;;;;;10158161;28;20137;-60
2023/03/02 17:23:40;;;;;;;27.08;12.07;;;6.80;98.10;;;;;;10158216;28;20024;-64
2023/03/02 17:28:31;;;;;;;28.15;10.75;;;6.70;98.20;;;;;;10174027;28;20212;-61
2023/03/02 17:33:21;;;;;;;25.00;12.38;;;6.60;98.20;;;;;;10174374;28;20028;-64
2023/03/02 17:38:13;;;;;;;26.75;12.30;;;6.60;98.20;;;;;;10176610;28;20111;-61
2023/03/02 17:43:04;;;;;;;87.18;36.50;;;6.50;98.10;;;;;;10140964;28;20046;-59
2023/03/02 17:47:56;;;;;;;69.15;29.52;;;6.50;98.20;;;;;;10151355;28;20126;-63
2023/03/02 17:52:47;;;;;;;28.75;12.88;;;6.60;98.20;;;;;;10174108;28;20024;-60
2023/03/02 17:57:38;;;;;;;28.67;12.65;;;6.40;98.30;;;;;;10161926;28;20036;-63
2023/03/02 18:02:29;;;;;;;24.27;11.05;;;6.30;98.40;;;;;;10165324;28;20054;-69
2023/03/02 18:07:20;;;;;;;31.73;12.38;;;6.30;98.50;;;;;;10168734;28;20023;-61
2023/03/02 18:12:10;;;;;;;27.35;11.57;;;6.20;98.60;;;;;;10160396;28;20028;-61
2023/03/02 18:17:03;;;;;;;25.30;12.60;;;6.20;98.80;;;;;;10153648;28;20035;-70
2023/03/02 18:21:54;;;;;;;27.75;13.85;;;6.20;98.50;;;;;;10151812;28;20039;-66
2023/03/02 18:26:45;;;;;;;32.10;13.93;;;6.10;98.60;;;;;;10152192;28;20032;-66
2023/03/02 18:31:35;;;;;;;36.53;12.50;;;6.20;98.60;;;;;;10158344;28;20020;-64
2023/03/02 18:36:26;;;;;;;27.30;12.77;;;6.10;98.60;;;;;;10163960;28;20048;-65
2023/03/02 18:41:17;;;;;;;27.38;13.45;;;6.10;98.80;;;;;;10145707;28;20055;-63
2023/03/02 18:46:23;;;;;;;25.42;11.85;;;6.00;98.90;;;;;;10149772;28;20092;-62
2023/03/02 18:51:14;;;;;;;23.75;11.60;;;6.00;98.80;;;;;;10151490;28;20054;-66
2023/03/02 18:56:05;;;;;;;27.65;11.55;;;6.00;98.80;;;;;;10151442;28;20460;-71
2023/03/02 19:00:56;;;;;;;24.20;11.82;;;6.00;98.80;;;;;;10161063;28;20102;-65
2023/03/02 19:05:46;;;;;;;27.30;14.23;;;6.00;98.90;;;;;;10160767;28;20068;-64
2023/03/02 19:10:40;;;;;;;28.75;12.60;;;6.00;98.90;;;;;;10149024;28;20025;-64
2023/03/02 19:15:33;;;;;;;34.45;14.23;;;5.90;99.00;;;;;;10152288;28;20107;-64
2023/03/02 19:20:26;;;;;;;30.85;12.45;;;5.90;99.10;;;;;;10155809;28;20046;-68
2023/03/02 19:25:16;;;;;;;30.00;11.70;;;5.90;99.10;;;;;;10165068;28;20032;-62
2023/03/02 19:30:11;;;;;;;32.00;13.45;;;5.90;99.10;;;;;;10168671;28;20012;-66
2023/03/02 19:35:01;;;;;;;26.60;12.25;;;5.90;99.20;;;;;;10165495;28;20052;-63
2023/03/02 19:39:52;;;;;;;27.10;11.65;;;5.90;99.20;;;;;;10159768;28;20032;-66
2023/03/02 19:44:43;;;;;;;27.85;14.43;;;5.90;99.20;;;;;;10146864;28;20024;-69
2023/03/02 19:49:37;;;;;;;27.42;12.25;;;5.90;99.40;;;;;;10142720;28;20032;-69
2023/03/02 19:54:27;;;;;;;36.45;15.15;;;6.00;99.40;;;;;;10173471;28;20378;-67
2023/03/02 19:59:20;;;;;;;23.40;11.80;;;6.00;99.50;;;;;;10157224;28;20058;-73
2023/03/02 20:04:11;;;;;;;25.05;12.07;;;6.10;99.50;;;;;;10163343;28;20450;-71
2023/03/02 20:09:05;;;;;;;30.08;12.88;;;6.00;99.60;;;;;;10172808;28;20021;-72
2023/03/02 20:14:00;;;;;;;27.77;13.57;;;6.10;99.60;;;;;;10169195;28;20639;-71
2023/03/02 20:18:51;;;;;;;27.08;14.20;;;6.00;99.70;;;;;;10159084;28;20121;-72
2023/03/02 20:23:42;;;;;;;29.25;15.02;;;5.90;99.70;;;;;;10172492;28;20254;-71
2023/03/02 20:28:34;;;;;;;33.78;15.02;;;5.80;99.80;;;;;;10166138;28;20020;-69
2023/03/02 20:33:29;;;;;;;30.67;14.95;;;5.80;99.80;;;;;;10170571;28;20530;-68
2023/03/02 20:38:26;;;;;;;27.67;14.95;;;5.70;99.80;;;;;;10191882;28;20036;-68
2023/03/02 20:43:17;;;;;;;31.95;13.68;;;5.70;99.80;;;;;;10176069;28;20470;-70
2023/03/02 20:48:08;;;;;;;39.47;16.25;;;5.60;99.80;;;;;;10176195;28;20031;-72
2023/03/02 20:53:00;;;;;;;31.65;15.10;;;5.50;99.70;;;;;;10179702;28;20106;-71
2023/03/02 20:57:50;;;;;;;37.75;14.80;;;5.50;99.80;;;;;;10160806;28;20043;-75
2023/03/02 21:02:42;;;;;;;31.60;16.00;;;5.40;99.80;;;;;;10155083;28;20031;-72
2023/03/02 21:07:34;;;;;;;34.08;15.38;;;5.40;99.90;;;;;;10171522;28;20016;-70
2023/03/02 21:12:25;;;;;;;39.47;16.73;;;5.50;99.90;;;;;;10162416;28;20111;-68
2023/03/02 21:17:15;;;;;;;36.85;15.65;;;5.50;99.90;;;;;;10163031;28;20526;-69
2023/03/02 21:22:06;;;;;;;35.90;15.10;;;5.50;99.90;;;;;;10158638;28;20031;-70
2023/03/02 21:26:59;;;;;;;122.80;50.05;;;5.50;99.90;;;;;;10173954;28;20024;-68
2023/03/02 21:31:50;;;;;;;86.90;39.15;;;5.50;99.90;;;;;;10177519;28;20506;-70
2023/03/02 21:36:41;;;;;;;44.42;20.35;;;5.60;99.90;;;;;;10167542;28;20071;-73
2023/03/02 21:41:34;;;;;;;37.30;16.83;;;5.60;99.90;;;;;;10169816;28;20032;-71
2023/03/02 21:46:25;;;;;;;31.02;15.77;;;5.60;99.90;;;;;;10177863;28;20116;-72
2023/03/02 21:51:16;;;;;;;36.03;17.00;;;5.50;99.90;;;;;;10180800;28;20182;-70
2023/03/02 21:56:07;;;;;;;39.65;15.70;;;5.40;99.90;;;;;;10180761;28;20561;-71
2023/03/02 22:00:59;;;;;;;30.10;14.68;;;5.40;99.90;;;;;;10178833;28;20039;-72
2023/03/02 22:05:49;;;;;;;29.58;14.73;;;5.30;99.90;;;;;;10169352;28;20043;-70
2023/03/02 22:10:50;;;;;;;31.45;15.60;;;5.30;99.90;;;;;;10167661;28;20046;-69
2023/03/02 22:15:40;;;;;;;32.45;14.20;;;5.30;99.90;;;;;;10148520;28;20021;-71
2023/03/02 22:20:31;;;;;;;24.90;13.95;;;5.10;99.90;;;;;;10145809;28;20539;-69
2023/03/02 22:25:22;;;;;;;24.70;13.23;;;5.10;99.90;;;;;;10144099;28;20081;-70
2023/03/02 22:30:19;;;;;;;33.35;14.73;;;5.00;99.90;;;;;;10182023;28;20070;-69
2023/03/02 22:35:20;;;;;;;33.50;13.40;;;4.90;99.90;;;;;;10180754;28;20154;-70
2023/03/02 22:40:31;;;;;;;37.67;15.35;;;4.90;99.90;;;;;;10182442;28;20035;-70
2023/03/02 22:45:22;;;;;;;28.60;13.85;;;4.90;99.90;;;;;;10163087;28;20501;-69
2023/03/02 22:50:25;;;;;;;33.80;13.60;;;4.80;99.90;;;;;;10144185;28;20556;-69
2023/03/02 22:55:39;;;;;;;28.00;12.65;;;4.80;99.90;;;;;;10169254;28;20036;-69
2023/03/02 23:00:38;;;;;;;24.50;11.65;;;4.70;99.90;;;;;;10158676;28;20454;-69
2023/03/02 23:05:33;;;;;;;31.85;13.50;;;4.70;99.90;;;;;;10177827;28;20374;-70
2023/03/02 23:10:24;;;;;;;22.40;9.10;;;4.70;99.90;;;;;;10168851;28;20017;-68
2023/03/02 23:15:18;;;;;;;29.70;12.68;;;4.70;99.90;;;;;;10153413;28;20107;-70
2023/03/02 23:20:12;;;;;;;31.38;14.45;;;4.60;99.90;;;;;;10169687;28;20058;-70
2023/03/02 23:25:04;;;;;;;32.38;13.85;;;4.60;99.90;;;;;;10167308;28;20023;-68
2023/03/02 23:29:55;;;;;;;28.73;13.68;;;4.50;99.90;;;;;;10180602;28;20163;-69
2023/03/02 23:34:45;;;;;;;24.17;12.35;;;4.50;99.90;;;;;;10180542;28;20381;-69
2023/03/02 23:39:36;;;;;;;25.42;12.40;;;4.50;99.90;;;;;;10154598;28;20039;-68
2023/03/02 23:44:27;;;;;;;23.23;12.45;;;4.50;99.90;;;;;;10139880;28;20025;-68
2023/03/02 23:49:17;;;;;;;26.52;11.85;;;4.50;99.90;;;;;;10139676;28;20457;-69
2023/03/02 23:54:08;;;;;;;28.08;12.00;;;4.50;99.90;;;;;;10148767;28;20029;-70
2023/03/02 23:58:59;;;;;;;34.67;12.75;;;4.50;99.90;;;;;;10166157;28;20409;-68
